Jewel Of The Seas — C6FW9 — position and weather

sailwx.info

Track history (hours):
 
Tides and Currents Weather Stations Pressure Air Temp Water Temp Dewpoint Dewpoint Depression Visibility Wind Speed Wind Dir Waves Ship Positions

Jewel Of The Seas

Operator: Royal Caribbean Cruises Ltd

Last reported at 2017-Mar-30 05:00 UTC. Time now 2017-Mar-30 14:35 UTC.
Position N 15°18' W 061°42'.

Length 290 m; draft 8.6 m.

Type: Passenger vessel. MMSI: 311583000.

Wind from 160 at 5 knots

Barometer 1010.0 mb
Air temperature 26.0 ° C
Visibility: greater than 27.0 NM
Water temperature 27.0 ° C

Date/timePositionNaut miles runAvg speedWind from/ knotsBaromVisibWave heightAir tempDewpointWater temp
2017-Mar-30 05:00N 15°18' W 061°42'6116.0 160 / 51010.027.0 26.0 27.0
2017-Mar-30 01:12N 16°18' W 061°53'914.5
2017-Mar-30 00:33N 16°27' W 061°54'1514.7
2017-Mar-29 23:33N 16°42' W 061°56'1514.6
2017-Mar-29 22:33N 16°56' W 061°57'1313.1
2017-Mar-29 21:33N 17°09' W 061°56'5 4.9
2017-Mar-29 20:33N 17°07' W 061°51'0 0.0
2017-Mar-29 19:30N 17°07' W 061°51'0 0.0
2017-Mar-29 18:33N 17°07' W 061°51'0 0.0
2017-Mar-29 17:33N 17°07' W 061°51'0 0.0
2017-Mar-29 16:33N 17°07' W 061°51'0 0.0
2017-Mar-29 15:33N 17°07' W 061°51'0 0.0
2017-Mar-29 14:33N 17°07' W 061°51'0 0.0
2017-Mar-29 13:33N 17°07' W 061°51'0 0.0
2017-Mar-29 12:33N 17°07' W 061°51'2 2.3
2017-Mar-29 11:33N 17°08' W 061°53'1010.0
2017-Mar-29 10:33N 17°09' W 062°03'1010.3
2017-Mar-29 09:33N 17°07' W 062°14'22 8.7
2017-Mar-29 07:00N 17°00' W 062°36'66 2.6 010 / 51010.027.0 26.0 27.0
2017-Mar-28 05:00N 17°48' W 063°24'8312.8 170 / 91011.027.0 26.0 27.0
2017-Mar-27 22:29N 18°12' W 064°48'44 2.5
2017-Mar-27 05:00N 18°30' W 065°30'2610.5 180 / 191010.027.0 26.0 27.0
2017-Mar-27 02:33N 18°32' W 065°57'7 6.8
2017-Mar-27 01:33N 18°31' W 066°04'4 3.8
2017-Mar-27 00:33N 18°28' W 066°06'0 0.2
2017-Mar-26 23:22N 18°28' W 066°06'0 0.0
2017-Mar-26 22:28N 18°28' W 066°06'0 0.0
2017-Mar-26 21:28N 18°28' W 066°06'0 0.0
2017-Mar-26 20:31N 18°28' W 066°06'0 0.0
2017-Mar-26 19:31N 18°28' W 066°06'0 0.0
2017-Mar-26 18:31N 18°28' W 066°06'0 0.0
2017-Mar-26 17:31N 18°28' W 066°06'0 0.0
2017-Mar-26 16:28N 18°28' W 066°06'0 0.0
2017-Mar-26 15:31N 18°28' W 066°06'0 0.0
2017-Mar-26 14:31N 18°28' W 066°06'0 0.0
2017-Mar-26 13:31N 18°28' W 066°06'0 0.0
2017-Mar-26 12:31N 18°28' W 066°06'0 0.0
2017-Mar-26 11:31N 18°28' W 066°06'0 0.0
2017-Mar-26 10:25N 18°28' W 066°06'0 0.0
2017-Mar-26 09:33N 18°28' W 066°06'4 4.3
2017-Mar-26 08:33N 18°32' W 066°04'3915.2
2017-Mar-26 06:00N 18°24' W 065°24'2711.1 170 / 241009.027.0 25.0 27.0
2017-Mar-26 03:32N 18°13' W 064°58'30813.7
2017-Mar-25 05:00N 13°42' W 062°24'118 4.7 090 / 241011.027.0 26.0 27.0
2017-Mar-24 04:00N 12°30' W 060°48'78 3.4 070 / 131011.027.0 27.0 27.0
2017-Mar-23 05:00N 13°42' W 060°18'181 9.8 090 / 241010.027.0 25.0 27.0
2017-Mar-22 10:29N 16°10' W 062°05'9 9.5
2017-Mar-22 09:33N 16°18' W 062°09'9 9.5
2017-Mar-22 08:33N 16°27' W 062°13'9 9.2
2017-Mar-22 07:33N 16°35' W 062°16'9 9.4
2017-Mar-22 06:33N 16°44' W 062°20'122215.7
2017-Mar-22 06:00N 14°42' W 062°18'131283.7 090 / 191012.027.0 26.0 27.0
2017-Mar-22 05:32N 16°53' W 062°24'10 9.5
2017-Mar-22 04:29N 17°03' W 062°26'9 9.5
2017-Mar-22 03:30N 17°12' W 062°30'10 9.3
2017-Mar-22 02:29N 17°20' W 062°35'88 3.9
2017-Mar-21 04:00N 17°54' W 064°00'67 3.2 100 / 101014.0 26.0 27.0
2017-Mar-20 07:00N 18°18' W 065°06'   120 / 91012.027.0 25.0 27.0
Track history (hours):
 
Tides and Currents Weather Stations Pressure Air Temp Water Temp Dewpoint Dewpoint Depression Visibility Wind Speed Wind Dir Waves Ship Positions

Jewel Of The Seas

Operator: Royal Caribbean Cruises Ltd

Last reported at 2017-Mar-30 05:00 UTC. Time now 2017-Mar-30 14:35 UTC.
Position N 15°18' W 061°42'.

Length 290 m; draft 8.6 m.

Type: Passenger vessel. MMSI: 311583000.

Wind from 160 at 5 knots

Barometer 1010.0 mb
Air temperature 26.0 ° C
Visibility: greater than 27.0 NM
Water temperature 27.0 ° C

Date/timePositionNaut miles runAvg speedWind from/ knotsBaromVisibWave heightAir tempDewpointWater temp
2017-Mar-30 05:00N 15°18' W 061°42'6116.0 160 / 51010.027.0 26.0 27.0
2017-Mar-30 01:12N 16°18' W 061°53'914.5
2017-Mar-30 00:33N 16°27' W 061°54'1514.7
2017-Mar-29 23:33N 16°42' W 061°56'1514.6
2017-Mar-29 22:33N 16°56' W 061°57'1313.1
2017-Mar-29 21:33N 17°09' W 061°56'5 4.9
2017-Mar-29 20:33N 17°07' W 061°51'0 0.0
2017-Mar-29 19:30N 17°07' W 061°51'0 0.0
2017-Mar-29 18:33N 17°07' W 061°51'0 0.0
2017-Mar-29 17:33N 17°07' W 061°51'0 0.0
2017-Mar-29 16:33N 17°07' W 061°51'0 0.0
2017-Mar-29 15:33N 17°07' W 061°51'0 0.0
2017-Mar-29 14:33N 17°07' W 061°51'0 0.0
2017-Mar-29 13:33N 17°07' W 061°51'0 0.0
2017-Mar-29 12:33N 17°07' W 061°51'2 2.3
2017-Mar-29 11:33N 17°08' W 061°53'1010.0
2017-Mar-29 10:33N 17°09' W 062°03'1010.3
2017-Mar-29 09:33N 17°07' W 062°14'22 8.7
2017-Mar-29 07:00N 17°00' W 062°36'66 2.6 010 / 51010.027.0 26.0 27.0
2017-Mar-28 05:00N 17°48' W 063°24'8312.8 170 / 91011.027.0 26.0 27.0
2017-Mar-27 22:29N 18°12' W 064°48'44 2.5
2017-Mar-27 05:00N 18°30' W 065°30'2610.5 180 / 191010.027.0 26.0 27.0
2017-Mar-27 02:33N 18°32' W 065°57'7 6.8
2017-Mar-27 01:33N 18°31' W 066°04'4 3.8
2017-Mar-27 00:33N 18°28' W 066°06'0 0.2
2017-Mar-26 23:22N 18°28' W 066°06'0 0.0
2017-Mar-26 22:28N 18°28' W 066°06'0 0.0
2017-Mar-26 21:28N 18°28' W 066°06'0 0.0
2017-Mar-26 20:31N 18°28' W 066°06'0 0.0
2017-Mar-26 19:31N 18°28' W 066°06'0 0.0
2017-Mar-26 18:31N 18°28' W 066°06'0 0.0
2017-Mar-26 17:31N 18°28' W 066°06'0 0.0
2017-Mar-26 16:28N 18°28' W 066°06'0 0.0
2017-Mar-26 15:31N 18°28' W 066°06'0 0.0
2017-Mar-26 14:31N 18°28' W 066°06'0 0.0
2017-Mar-26 13:31N 18°28' W 066°06'0 0.0
2017-Mar-26 12:31N 18°28' W 066°06'0 0.0
2017-Mar-26 11:31N 18°28' W 066°06'0 0.0
2017-Mar-26 10:25N 18°28' W 066°06'0 0.0
2017-Mar-26 09:33N 18°28' W 066°06'4 4.3
2017-Mar-26 08:33N 18°32' W 066°04'3915.2
2017-Mar-26 06:00N 18°24' W 065°24'2711.1 170 / 241009.027.0 25.0 27.0
2017-Mar-26 03:32N 18°13' W 064°58'30813.7
2017-Mar-25 05:00N 13°42' W 062°24'118 4.7 090 / 241011.027.0 26.0 27.0
2017-Mar-24 04:00N 12°30' W 060°48'78 3.4 070 / 131011.027.0 27.0 27.0
2017-Mar-23 05:00N 13°42' W 060°18'181 9.8 090 / 241010.027.0 25.0 27.0
2017-Mar-22 10:29N 16°10' W 062°05'9 9.5
2017-Mar-22 09:33N 16°18' W 062°09'9 9.5
2017-Mar-22 08:33N 16°27' W 062°13'9 9.2
2017-Mar-22 07:33N 16°35' W 062°16'9 9.4
2017-Mar-22 06:33N 16°44' W 062°20'122215.7
2017-Mar-22 06:00N 14°42' W 062°18'131283.7 090 / 191012.027.0 26.0 27.0
2017-Mar-22 05:32N 16°53' W 062°24'10 9.5
2017-Mar-22 04:29N 17°03' W 062°26'9 9.5
2017-Mar-22 03:30N 17°12' W 062°30'10 9.3
2017-Mar-22 02:29N 17°20' W 062°35'88 3.9
2017-Mar-21 04:00N 17°54' W 064°00'67 3.2 100 / 101014.0 26.0 27.0
2017-Mar-20 07:00N 18°18' W 065°06'   120 / 91012.027.0 25.0 27.0

Dump ship's entire track history